sensor_id;sensor_type;location;lat;lon;timestamp;pressure;altitude;pressure_sealevel;temperature;humidity
79085;BME280;68486;42.808;23.422;2023-03-23T00:01:07;94145.31;;;2.48;100.00
79085;BME280;68486;42.808;23.422;2023-03-23T00:03:35;93929.53;;;1.17;100.00
79085;BME280;68486;42.808;23.422;2023-03-23T00:06:00;94004.88;;;1.85;100.00
79085;BME280;68486;42.808;23.422;2023-03-23T00:08:32;93944.06;;;1.45;100.00
79085;BME280;68486;42.808;23.422;2023-03-23T00:10:58;93994.56;;;2.03;100.00
79085;BME280;68486;42.808;23.422;2023-03-23T00:13:27;93818.75;;;0.88;100.00
79085;BME280;68486;42.808;23.422;2023-03-23T00:15:53;93769.19;;;0.57;100.00
79085;BME280;68486;42.808;23.422;2023-03-23T00:18:20;93764.78;;;0.76;100.00
79085;BME280;68486;42.808;23.422;2023-03-23T00:20:49;93750.19;;;0.58;100.00
79085;BME280;68486;42.808;23.422;2023-03-23T00:23:20;93819.81;;;1.40;100.00
79085;BME280;68486;42.808;23.422;2023-03-23T00:25:51;94038.78;;;2.45;100.00
79085;BME280;68486;42.808;23.422;2023-03-23T00:28:25;93781.19;;;1.03;100.00
79085;BME280;68486;42.808;23.422;2023-03-23T00:30:59;93912.22;;;1.82;100.00
79085;BME280;68486;42.808;23.422;2023-03-23T00:33:27;94112.56;;;3.20;100.00
79085;BME280;68486;42.808;23.422;2023-03-23T00:35:54;93920.03;;;1.90;100.00
79085;BME280;68486;42.808;23.422;2023-03-23T00:38:21;93792.97;;;1.33;100.00
79085;BME280;68486;42.808;23.422;2023-03-23T00:40:47;93798.69;;;1.27;100.00
79085;BME280;68486;42.808;23.422;2023-03-23T00:43:14;93860.25;;;1.67;100.00
79085;BME280;68486;42.808;23.422;2023-03-23T00:45:41;93931.19;;;2.26;100.00
79085;BME280;68486;42.808;23.422;2023-03-23T00:48:07;94075.44;;;2.94;100.00
79085;BME280;68486;42.808;23.422;2023-03-23T00:50:33;94012.84;;;2.72;100.00
79085;BME280;68486;42.808;23.422;2023-03-23T00:52:59;94049.31;;;2.61;100.00
79085;BME280;68486;42.808;23.422;2023-03-23T00:55:25;94008.44;;;2.47;100.00
79085;BME280;68486;42.808;23.422;2023-03-23T00:57:51;94170.81;;;3.24;100.00
79085;BME280;68486;42.808;23.422;2023-03-23T01:00:18;93819.63;;;1.24;100.00
79085;BME280;68486;42.808;23.422;2023-03-23T01:02:44;93996.69;;;2.35;100.00
79085;BME280;68486;42.808;23.422;2023-03-23T01:05:11;93919.50;;;1.69;100.00
79085;BME280;68486;42.808;23.422;2023-03-23T01:07:36;93827.06;;;1.09;100.00
79085;BME280;68486;42.808;23.422;2023-03-23T01:10:04;93818.84;;;0.86;100.00
79085;BME280;68486;42.808;23.422;2023-03-23T01:12:30;93750.09;;;0.49;100.00
79085;BME280;68486;42.808;23.422;2023-03-23T01:14:55;93870.56;;;0.94;100.00
79085;BME280;68486;42.808;23.422;2023-03-23T01:17:21;93997.63;;;1.71;100.00
79085;BME280;68486;42.808;23.422;2023-03-23T01:19:46;93985.00;;;1.68;100.00
79085;BME280;68486;42.808;23.422;2023-03-23T01:22:12;94004.59;;;1.88;100.00
79085;BME280;68486;42.808;23.422;2023-03-23T01:24:37;93783.91;;;0.46;100.00
79085;BME280;68486;42.808;23.422;2023-03-23T01:27:03;93772.06;;;0.16;100.00
79085;BME280;68486;42.808;23.422;2023-03-23T01:29:33;94020.94;;;1.79;100.00
79085;BME280;68486;42.808;23.422;2023-03-23T01:31:59;93794.94;;;0.29;100.00
79085;BME280;68486;42.808;23.422;2023-03-23T01:34:24;93828.00;;;0.71;100.00
79085;BME280;68486;42.808;23.422;2023-03-23T01:36:50;93700.19;;;-0.14;100.00
79085;BME280;68486;42.808;23.422;2023-03-23T01:39:15;93867.09;;;0.76;100.00
79085;BME280;68486;42.808;23.422;2023-03-23T01:41:41;93798.00;;;0.42;100.00
79085;BME280;68486;42.808;23.422;2023-03-23T01:46:43;93785.06;;;0.15;100.00
79085;BME280;68486;42.808;23.422;2023-03-23T01:49:22;94050.97;;;1.80;100.00
79085;BME280;68486;42.808;23.422;2023-03-23T01:51:52;93921.00;;;1.06;100.00
79085;BME280;68486;42.808;23.422;2023-03-23T01:54:20;93767.75;;;-0.03;100.00
79085;BME280;68486;42.808;23.422;2023-03-23T01:57:02;93765.88;;;-0.10;100.00
79085;BME280;68486;42.808;23.422;2023-03-23T01:59:30;93711.88;;;-0.39;100.00
79085;BME280;68486;42.808;23.422;2023-03-23T02:01:57;93784.38;;;0.13;100.00
79085;BME280;68486;42.808;23.422;2023-03-23T02:04:24;93922.69;;;0.88;100.00
79085;BME280;68486;42.808;23.422;2023-03-23T02:06:54;93781.06;;;-0.07;100.00
79085;BME280;68486;42.808;23.422;2023-03-23T02:09:21;93808.38;;;0.13;100.00
79085;BME280;68486;42.808;23.422;2023-03-23T02:11:48;93808.13;;;0.07;100.00
79085;BME280;68486;42.808;23.422;2023-03-23T02:14:15;94164.34;;;2.20;100.00
79085;BME280;68486;42.808;23.422;2023-03-23T02:31:22;94141.97;;;2.01;100.00
79085;BME280;68486;42.808;23.422;2023-03-23T02:33:59;93798.66;;;-0.03;100.00
79085;BME280;68486;42.808;23.422;2023-03-23T02:36:38;93813.25;;;0.07;100.00
79085;BME280;68486;42.808;23.422;2023-03-23T02:41:57;93945.47;;;1.02;100.00
79085;BME280;68486;42.808;23.422;2023-03-23T02:44:26;93916.88;;;1.14;100.00
79085;BME280;68486;42.808;23.422;2023-03-23T02:46:56;93820.44;;;0.22;100.00
79085;BME280;68486;42.808;23.422;2023-03-23T02:49:24;93778.19;;;-0.04;100.00
79085;BME280;68486;42.808;23.422;2023-03-23T02:51:51;93782.75;;;0.12;100.00
79085;BME280;68486;42.808;23.422;2023-03-23T02:54:19;93936.44;;;1.16;100.00
79085;BME280;68486;42.808;23.422;2023-03-23T02:56:49;94012.84;;;1.64;100.00
79085;BME280;68486;42.808;23.422;2023-03-23T02:59:16;93798.53;;;0.46;100.00
79085;BME280;68486;42.808;23.422;2023-03-23T03:04:13;93925.31;;;1.43;100.00
79085;BME280;68486;42.808;23.422;2023-03-23T03:06:55;93774.16;;;0.40;100.00
79085;BME280;68486;42.808;23.422;2023-03-23T03:09:34;94166.31;;;2.91;100.00
79085;BME280;68486;42.808;23.422;2023-03-23T03:12:18;94163.66;;;3.00;100.00
79085;BME280;68486;42.808;23.422;2023-03-23T03:15:16;93804.47;;;0.56;100.00
79085;BME280;68486;42.808;23.422;2023-03-23T03:17:59;93788.03;;;0.67;100.00
79085;BME280;68486;42.808;23.422;2023-03-23T03:20:34;93781.13;;;0.58;100.00
79085;BME280;68486;42.808;23.422;2023-03-23T03:23:05;93857.16;;;1.08;100.00
79085;BME280;68486;42.808;23.422;2023-03-23T03:25:33;93785.63;;;0.83;100.00
79085;BME280;68486;42.808;23.422;2023-03-23T03:28:00;93798.91;;;0.88;100.00
79085;BME280;68486;42.808;23.422;2023-03-23T03:30:30;93756.06;;;0.77;100.00
79085;BME280;68486;42.808;23.422;2023-03-23T03:33:01;93834.66;;;1.10;100.00
79085;BME280;68486;42.808;23.422;2023-03-23T03:35:30;93938.63;;;1.93;100.00
79085;BME280;68486;42.808;23.422;2023-03-23T03:37:57;94040.72;;;2.43;100.00
79085;BME280;68486;42.808;23.422;2023-03-23T03:40:29;93831.63;;;1.15;100.00
79085;BME280;68486;42.808;23.422;2023-03-23T03:42:55;93763.66;;;0.79;100.00
79085;BME280;68486;42.808;23.422;2023-03-23T03:45:26;94197.91;;;3.48;100.00
79085;BME280;68486;42.808;23.422;2023-03-23T03:47:51;94094.66;;;3.09;100.00
79085;BME280;68486;42.808;23.422;2023-03-23T03:50:20;93874.47;;;1.53;100.00
79085;BME280;68486;42.808;23.422;2023-03-23T03:52:45;94176.00;;;3.24;100.00
79085;BME280;68486;42.808;23.422;2023-03-23T03:55:11;93820.38;;;0.79;100.00
79085;BME280;68486;42.808;23.422;2023-03-23T03:57:38;93931.06;;;1.64;100.00
79085;BME280;68486;42.808;23.422;2023-03-23T04:00:08;93847.25;;;1.14;100.00
79085;BME280;68486;42.808;23.422;2023-03-23T04:02:46;94195.16;;;3.31;100.00
79085;BME280;68486;42.808;23.422;2023-03-23T04:05:25;93801.19;;;0.91;100.00
79085;BME280;68486;42.808;23.422;2023-03-23T04:07:54;93818.13;;;1.21;100.00
79085;BME280;68486;42.808;23.422;2023-03-23T04:10:29;93818.63;;;1.07;100.00
79085;BME280;68486;42.808;23.422;2023-03-23T04:12:58;94190.28;;;3.46;100.00
79085;BME280;68486;42.808;23.422;2023-03-23T04:15:25;93699.25;;;0.51;100.00
79085;BME280;68486;42.808;23.422;2023-03-23T04:17:51;93805.81;;;1.15;100.00
79085;BME280;68486;42.808;23.422;2023-03-23T04:20:17;93975.69;;;2.02;100.00
79085;BME280;68486;42.808;23.422;2023-03-23T04:22:47;93792.81;;;0.89;100.00
79085;BME280;68486;42.808;23.422;2023-03-23T04:25:19;93779.09;;;0.89;100.00
79085;BME280;68486;42.808;23.422;2023-03-23T04:27:51;93805.94;;;0.96;100.00
79085;BME280;68486;42.808;23.422;2023-03-23T04:30:22;93931.34;;;1.89;100.00
79085;BME280;68486;42.808;23.422;2023-03-23T04:32:56;93816.75;;;0.99;100.00
79085;BME280;68486;42.808;23.422;2023-03-23T04:35:24;94182.22;;;3.31;100.00
79085;BME280;68486;42.808;23.422;2023-03-23T04:37:52;93804.34;;;0.85;100.00
79085;BME280;68486;42.808;23.422;2023-03-23T04:40:19;94034.16;;;2.03;100.00
79085;BME280;68486;42.808;23.422;2023-03-23T04:42:46;93940.31;;;1.57;100.00
79085;BME280;68486;42.808;23.422;2023-03-23T04:45:16;93819.97;;;0.46;100.00
79085;BME280;68486;42.808;23.422;2023-03-23T04:47:48;93924.47;;;1.25;100.00
79085;BME280;68486;42.808;23.422;2023-03-23T04:50:20;93815.72;;;0.55;100.00
79085;BME280;68486;42.808;23.422;2023-03-23T04:52:48;93877.25;;;1.15;100.00
79085;BME280;68486;42.808;23.422;2023-03-23T04:55:13;94185.53;;;3.24;100.00
79085;BME280;68486;42.808;23.422;2023-03-23T04:57:39;93883.53;;;1.30;100.00
79085;BME280;68486;42.808;23.422;2023-03-23T05:00:06;93822.25;;;0.59;100.00
79085;BME280;68486;42.808;23.422;2023-03-23T05:02:40;93989.47;;;1.38;100.00
79085;BME280;68486;42.808;23.422;2023-03-23T05:05:13;93796.03;;;0.17;100.00
79085;BME280;68486;42.808;23.422;2023-03-23T05:07:42;93807.75;;;0.48;100.00
79085;BME280;68486;42.808;23.422;2023-03-23T05:10:10;93811.00;;;0.50;100.00
79085;BME280;68486;42.808;23.422;2023-03-23T05:12:38;93827.81;;;0.54;100.00
79085;BME280;68486;42.808;23.422;2023-03-23T05:15:05;93826.53;;;0.31;100.00
79085;BME280;68486;42.808;23.422;2023-03-23T05:17:32;93847.22;;;0.49;100.00
79085;BME280;68486;42.808;23.422;2023-03-23T05:19:59;93798.50;;;0.55;100.00
79085;BME280;68486;42.808;23.422;2023-03-23T05:22:28;93991.63;;;1.70;100.00
79085;BME280;68486;42.808;23.422;2023-03-23T05:24:54;93864.00;;;1.27;100.00
79085;BME280;68486;42.808;23.422;2023-03-23T05:27:19;93814.28;;;1.07;99.96
79085;BME280;68486;42.808;23.422;2023-03-23T05:29:46;93792.88;;;1.25;99.05
79085;BME280;68486;42.808;23.422;2023-03-23T05:32:16;93777.47;;;1.51;98.67
79085;BME280;68486;42.808;23.422;2023-03-23T05:34:44;94052.06;;;3.21;97.94
79085;BME280;68486;42.808;23.422;2023-03-23T05:37:11;93818.19;;;2.10;96.48
79085;BME280;68486;42.808;23.422;2023-03-23T05:39:39;94052.25;;;3.54;96.37
79085;BME280;68486;42.808;23.422;2023-03-23T05:42:05;93835.41;;;2.28;94.39
79085;BME280;68486;42.808;23.422;2023-03-23T05:44:32;93863.78;;;2.19;94.58
79085;BME280;68486;42.808;23.422;2023-03-23T05:47:03;93860.69;;;1.98;94.89
79085;BME280;68486;42.808;23.422;2023-03-23T05:49:30;93834.75;;;2.26;95.02
79085;BME280;68486;42.808;23.422;2023-03-23T05:51:56;94229.72;;;4.88;94.21
79085;BME280;68486;42.808;23.422;2023-03-23T05:54:22;93839.31;;;2.32;93.73
79085;BME280;68486;42.808;23.422;2023-03-23T05:56:48;93790.41;;;2.12;93.99
79085;BME280;68486;42.808;23.422;2023-03-23T05:59:14;93962.72;;;3.43;94.59
79085;BME280;68486;42.808;23.422;2023-03-23T06:01:40;94009.09;;;4.05;93.25
79085;BME280;68486;42.808;23.422;2023-03-23T06:04:09;94115.00;;;4.84;94.12
79085;BME280;68486;42.808;23.422;2023-03-23T06:06:37;94266.81;;;6.05;91.88
79085;BME280;68486;42.808;23.422;2023-03-23T06:09:03;94129.31;;;4.96;89.34
79085;BME280;68486;42.808;23.422;2023-03-23T06:11:37;94250.50;;;5.54;92.57
79085;BME280;68486;42.808;23.422;2023-03-23T06:14:04;93863.19;;;3.03;93.34
79085;BME280;68486;42.808;23.422;2023-03-23T06:16:32;93880.50;;;3.45;92.18
79085;BME280;68486;42.808;23.422;2023-03-23T06:19:08;93788.06;;;2.53;90.28
79085;BME280;68486;42.808;23.422;2023-03-23T06:21:52;94281.31;;;5.41;91.32
79085;BME280;68486;42.808;23.422;2023-03-23T06:24:36;93862.31;;;3.21;91.99
79085;BME280;68486;42.808;23.422;2023-03-23T06:27:27;93801.84;;;2.96;90.52
79085;BME280;68486;42.808;23.422;2023-03-23T06:29:59;94132.28;;;5.67;90.48
79085;BME280;68486;42.808;23.422;2023-03-23T06:32:31;94238.88;;;6.79;89.05
79085;BME280;68486;42.808;23.422;2023-03-23T06:34:57;93847.13;;;4.58;87.73
79085;BME280;68486;42.808;23.422;2023-03-23T06:37:26;94246.88;;;7.25;87.04
79085;BME280;68486;42.808;23.422;2023-03-23T06:39:58;93771.16;;;4.08;86.82
79085;BME280;68486;42.808;23.422;2023-03-23T06:42:26;93853.78;;;4.52;85.15
79085;BME280;68486;42.808;23.422;2023-03-23T06:44:52;94035.19;;;5.60;85.25
79085;BME280;68486;42.808;23.422;2023-03-23T06:47:20;93954.22;;;5.95;85.97
79085;BME280;68486;42.808;23.422;2023-03-23T06:49:47;93848.13;;;5.60;83.92
79085;BME280;68486;42.808;23.422;2023-03-23T06:52:13;93857.31;;;5.70;82.08
79085;BME280;68486;42.808;23.422;2023-03-23T06:54:39;94256.84;;;7.98;83.80
79085;BME280;68486;42.808;23.422;2023-03-23T06:57:10;93806.41;;;5.22;82.01
79085;BME280;68486;42.808;23.422;2023-03-23T06:59:42;94271.66;;;7.98;82.52
79085;BME280;68486;42.808;23.422;2023-03-23T07:02:12;93912.53;;;6.34;80.65
79085;BME280;68486;42.808;23.422;2023-03-23T07:04:39;94253.88;;;8.92;81.88
79085;BME280;68486;42.808;23.422;2023-03-23T07:07:07;93881.22;;;5.66;80.00
79085;BME280;68486;42.808;23.422;2023-03-23T07:09:33;93865.59;;;6.28;84.23
79085;BME280;68486;42.808;23.422;2023-03-23T07:11:59;93888.84;;;6.52;80.34
79085;BME280;68486;42.808;23.422;2023-03-23T07:14:24;94293.97;;;9.14;81.50
79085;BME280;68486;42.808;23.422;2023-03-23T07:16:50;94274.84;;;9.28;78.45
79085;BME280;68486;42.808;23.422;2023-03-23T07:19:19;93973.25;;;6.96;81.45
79085;BME280;68486;42.808;23.422;2023-03-23T07:21:45;93964.91;;;7.00;79.62
79085;BME280;68486;42.808;23.422;2023-03-23T07:24:12;94137.81;;;8.35;78.40
79085;BME280;68486;42.808;23.422;2023-03-23T07:26:42;93951.31;;;7.28;80.90
79085;BME280;68486;42.808;23.422;2023-03-23T07:29:08;93987.09;;;7.93;77.81
79085;BME280;68486;42.808;23.422;2023-03-23T07:31:35;94164.28;;;8.91;77.96
79085;BME280;68486;42.808;23.422;2023-03-23T07:34:02;94076.16;;;9.43;72.76
79085;BME280;68486;42.808;23.422;2023-03-23T07:36:28;94061.81;;;9.60;70.75
79085;BME280;68486;42.808;23.422;2023-03-23T07:38:58;93897.81;;;8.42;70.48
79085;BME280;68486;42.808;23.422;2023-03-23T07:41:23;94047.00;;;8.81;75.17
79085;BME280;68486;42.808;23.422;2023-03-23T07:43:49;93899.78;;;7.89;74.44
79085;BME280;68486;42.808;23.422;2023-03-23T07:46:15;93967.97;;;9.44;71.86
79085;BME280;68486;42.808;23.422;2023-03-23T07:48:41;93955.13;;;10.18;64.64
79085;BME280;68486;42.808;23.422;2023-03-23T07:51:09;93925.72;;;8.41;66.94
79085;BME280;68486;42.808;23.422;2023-03-23T07:53:35;93900.59;;;8.40;72.14
79085;BME280;68486;42.808;23.422;2023-03-23T07:56:00;94128.13;;;10.23;69.90
79085;BME280;68486;42.808;23.422;2023-03-23T07:58:28;93845.44;;;8.07;68.39
79085;BME280;68486;42.808;23.422;2023-03-23T08:00:54;93919.22;;;7.86;66.80
79085;BME280;68486;42.808;23.422;2023-03-23T08:03:22;93928.34;;;7.46;71.22
79085;BME280;68486;42.808;23.422;2023-03-23T08:05:48;93850.50;;;7.94;72.43
79085;BME280;68486;42.808;23.422;2023-03-23T08:08:15;93908.22;;;8.06;72.02
79085;BME280;68486;42.808;23.422;2023-03-23T08:10:41;93938.66;;;7.69;73.38
79085;BME280;68486;42.808;23.422;2023-03-23T08:13:06;94152.09;;;8.83;74.43
79085;BME280;68486;42.808;23.422;2023-03-23T08:15:33;94312.75;;;9.68;72.57
79085;BME280;68486;42.808;23.422;2023-03-23T08:18:03;93945.25;;;8.16;70.65
79085;BME280;68486;42.808;23.422;2023-03-23T08:20:30;93938.19;;;8.46;70.14
79085;BME280;68486;42.808;23.422;2023-03-23T08:22:56;94139.50;;;9.45;69.82
79085;BME280;68486;42.808;23.422;2023-03-23T08:25:23;94151.78;;;10.77;69.13
79085;BME280;68486;42.808;23.422;2023-03-23T08:27:51;93908.16;;;9.27;70.24
79085;BME280;68486;42.808;23.422;2023-03-23T08:30:19;93948.47;;;9.74;66.90
79085;BME280;68486;42.808;23.422;2023-03-23T08:32:46;93928.00;;;9.50;68.30
79085;BME280;68486;42.808;23.422;2023-03-23T08:35:24;93995.91;;;10.06;68.50
79085;BME280;68486;42.808;23.422;2023-03-23T08:37:49;94291.59;;;11.80;65.27
79085;BME280;68486;42.808;23.422;2023-03-23T08:40:22;93934.47;;;8.55;70.90
79085;BME280;68486;42.808;23.422;2023-03-23T08:42:50;93889.53;;;8.23;68.57
79085;BME280;68486;42.808;23.422;2023-03-23T08:45:19;93949.69;;;9.44;67.97
79085;BME280;68486;42.808;23.422;2023-03-23T08:47:45;94295.94;;;10.84;69.76
79085;BME280;68486;42.808;23.422;2023-03-23T08:50:18;93937.06;;;8.98;66.31
79085;BME280;68486;42.808;23.422;2023-03-23T08:52:45;94156.47;;;9.98;70.51
79085;BME280;68486;42.808;23.422;2023-03-23T08:55:11;94300.81;;;11.22;72.65
79085;BME280;68486;42.808;23.422;2023-03-23T08:57:42;94069.13;;;9.99;69.54
79085;BME280;68486;42.808;23.422;2023-03-23T09:00:13;93957.50;;;10.13;66.56
79085;BME280;68486;42.808;23.422;2023-03-23T09:02:43;94285.47;;;13.01;66.80
79085;BME280;68486;42.808;23.422;2023-03-23T09:05:11;94018.91;;;11.59;63.69
79085;BME280;68486;42.808;23.422;2023-03-23T09:07:43;93920.25;;;11.51;62.83
79085;BME280;68486;42.808;23.422;2023-03-23T09:10:11;94298.81;;;13.26;63.94
79085;BME280;68486;42.808;23.422;2023-03-23T09:12:43;93903.88;;;11.76;57.79
79085;BME280;68486;42.808;23.422;2023-03-23T09:15:11;93962.91;;;12.69;54.69
79085;BME280;68486;42.808;23.422;2023-03-23T09:17:55;93958.81;;;11.18;55.96
79085;BME280;68486;42.808;23.422;2023-03-23T09:20:24;94314.97;;;13.36;56.55
79085;BME280;68486;42.808;23.422;2023-03-23T09:22:52;93914.41;;;11.56;56.81
79085;BME280;68486;42.808;23.422;2023-03-23T09:25:20;93958.75;;;12.87;54.80
79085;BME280;68486;42.808;23.422;2023-03-23T09:27:49;93992.28;;;11.95;57.65
79085;BME280;68486;42.808;23.422;2023-03-23T09:30:19;93935.22;;;11.31;58.53
79085;BME280;68486;42.808;23.422;2023-03-23T09:32:46;93970.41;;;12.08;57.58
79085;BME280;68486;42.808;23.422;2023-03-23T09:35:14;94281.84;;;13.79;52.37
79085;BME280;68486;42.808;23.422;2023-03-23T09:37:42;94279.25;;;13.66;52.81
79085;BME280;68486;42.808;23.422;2023-03-23T09:46:00;94272.16;;;14.05;52.56
79085;BME280;68486;42.808;23.422;2023-03-23T09:48:52;93967.56;;;12.09;54.38
79085;BME280;68486;42.808;23.422;2023-03-23T09:51:56;94001.97;;;11.62;56.88
79085;BME280;68486;42.808;23.422;2023-03-23T09:54:29;94276.06;;;13.51;59.40
79085;BME280;68486;42.808;23.422;2023-03-23T09:56:58;93897.25;;;10.54;59.29
79085;BME280;68486;42.808;23.422;2023-03-23T09:59:47;94276.13;;;13.31;59.26
79085;BME280;68486;42.808;23.422;2023-03-23T10:02:29;94269.00;;;13.90;55.64
79085;BME280;68486;42.808;23.422;2023-03-23T10:05:25;93871.25;;;11.52;56.50
79085;BME280;68486;42.808;23.422;2023-03-23T10:07:55;93929.44;;;12.00;54.23
79085;BME280;68486;42.808;23.422;2023-03-23T10:30:57;94042.22;;;15.33;48.09
79085;BME280;68486;42.808;23.422;2023-03-23T10:44:21;94243.88;;;17.57;42.86
79085;BME280;68486;42.808;23.422;2023-03-23T10:49:26;94240.78;;;19.30;40.95
79085;BME280;68486;42.808;23.422;2023-03-23T10:52:01;94202.53;;;19.09;38.18
79085;BME280;68486;42.808;23.422;2023-03-23T10:54:35;94231.69;;;18.70;37.87
79085;BME280;68486;42.808;23.422;2023-03-23T10:57:13;94194.41;;;17.46;42.52
79085;BME280;68486;42.808;23.422;2023-03-23T10:59:40;94232.53;;;17.22;43.46
79085;BME280;68486;42.808;23.422;2023-03-23T11:02:15;94231.25;;;17.36;42.76
79085;BME280;68486;42.808;23.422;2023-03-23T11:04:46;94239.81;;;16.38;44.83
79085;BME280;68486;42.808;23.422;2023-03-23T11:07:19;94174.31;;;15.20;47.14
79085;BME280;68486;42.808;23.422;2023-03-23T11:09:57;94239.63;;;15.24;48.46
79085;BME280;68486;42.808;23.422;2023-03-23T11:12:32;94223.69;;;13.81;49.91
79085;BME280;68486;42.808;23.422;2023-03-23T11:15:10;94227.75;;;13.39;49.75
79085;BME280;68486;42.808;23.422;2023-03-23T11:17:40;94230.63;;;14.39;47.79
79085;BME280;68486;42.808;23.422;2023-03-23T11:20:11;94225.06;;;14.78;46.02
79085;BME280;68486;42.808;23.422;2023-03-23T11:22:38;94172.59;;;14.52;46.93
79085;BME280;68486;42.808;23.422;2023-03-23T11:25:05;94217.69;;;14.87;49.17
79085;BME280;68486;42.808;23.422;2023-03-23T11:27:32;94199.88;;;15.19;45.47
79085;BME280;68486;42.808;23.422;2023-03-23T11:30:09;94200.28;;;16.31;44.39
79085;BME280;68486;42.808;23.422;2023-03-23T11:32:36;94198.28;;;17.55;42.48
79085;BME280;68486;42.808;23.422;2023-03-23T11:35:11;94181.56;;;18.24;39.64
79085;BME280;68486;42.808;23.422;2023-03-23T11:37:42;94187.25;;;19.16;36.74
79085;BME280;68486;42.808;23.422;2023-03-23T11:42:59;94176.25;;;19.95;36.88
79085;BME280;68486;42.808;23.422;2023-03-23T11:45:36;94157.25;;;20.08;35.11
79085;BME280;68486;42.808;23.422;2023-03-23T11:50:54;94174.00;;;18.15;39.92
79085;BME280;68486;42.808;23.422;2023-03-23T11:53:35;94173.88;;;19.28;37.88
79085;BME280;68486;42.808;23.422;2023-03-23T11:58:46;94167.41;;;17.73;40.11
79085;BME280;68486;42.808;23.422;2023-03-23T12:16:23;94168.63;;;18.94;38.00
79085;BME280;68486;42.808;23.422;2023-03-23T12:31:32;93965.56;;;16.68;39.38
79085;BME280;68486;42.808;23.422;2023-03-23T12:36:53;94161.50;;;17.82;40.50
79085;BME280;68486;42.808;23.422;2023-03-23T12:40:05;94161.38;;;19.07;37.66
79085;BME280;68486;42.808;23.422;2023-03-23T12:52:00;94153.84;;;19.86;34.91
79085;BME280;68486;42.808;23.422;2023-03-23T12:54:45;93806.78;;;17.81;33.64
79085;BME280;68486;42.808;23.422;2023-03-23T13:03:12;94140.84;;;20.49;36.97
79085;BME280;68486;42.808;23.422;2023-03-23T13:05:46;93826.63;;;17.61;32.95
79085;BME280;68486;42.808;23.422;2023-03-23T13:08:25;93855.38;;;17.36;34.78
79085;BME280;68486;42.808;23.422;2023-03-23T13:10:57;93932.38;;;17.34;37.11
79085;BME280;68486;42.808;23.422;2023-03-23T13:13:53;93938.41;;;17.01;37.45
79085;BME280;68486;42.808;23.422;2023-03-23T13:16:33;94054.03;;;18.59;33.62
79085;BME280;68486;42.808;23.422;2023-03-23T13:19:11;94134.63;;;20.65;35.05
79085;BME280;68486;42.808;23.422;2023-03-23T13:21:50;94148.69;;;20.01;33.89
79085;BME280;68486;42.808;23.422;2023-03-23T13:24:21;93768.19;;;17.68;35.27
79085;BME280;68486;42.808;23.422;2023-03-23T13:26:50;94144.09;;;20.56;34.63
79085;BME280;68486;42.808;23.422;2023-03-23T13:29:20;93738.34;;;17.73;35.10
79085;BME280;68486;42.808;23.422;2023-03-23T13:31:51;94079.81;;;20.69;35.52
79085;BME280;68486;42.808;23.422;2023-03-23T13:34:24;93823.53;;;19.11;34.59
79085;BME280;68486;42.808;23.422;2023-03-23T13:37:03;93777.00;;;19.41;31.02
79085;BME280;68486;42.808;23.422;2023-03-23T13:39:31;94118.13;;;21.83;32.89
79085;BME280;68486;42.808;23.422;2023-03-23T13:42:04;94118.72;;;22.67;31.89
79085;BME280;68486;42.808;23.422;2023-03-23T13:50:08;94127.31;;;20.87;32.48
79085;BME280;68486;42.808;23.422;2023-03-23T13:57:53;93837.09;;;18.61;30.68
79085;BME280;68486;42.808;23.422;2023-03-23T14:05:37;93737.28;;;19.56;29.44
79085;BME280;68486;42.808;23.422;2023-03-23T14:08:12;93792.66;;;19.00;32.55
79085;BME280;68486;42.808;23.422;2023-03-23T14:10:44;93921.28;;;20.21;33.60
79085;BME280;68486;42.808;23.422;2023-03-23T14:13:20;94121.22;;;20.97;34.28
79085;BME280;68486;42.808;23.422;2023-03-23T14:16:02;93851.44;;;19.51;34.10
79085;BME280;68486;42.808;23.422;2023-03-23T14:18:39;93775.69;;;19.91;32.46
79085;BME280;68486;42.808;23.422;2023-03-23T14:21:13;93798.31;;;20.66;31.05
79085;BME280;68486;42.808;23.422;2023-03-23T14:23:39;93708.75;;;18.94;30.95
79085;BME280;68486;42.808;23.422;2023-03-23T14:26:12;94009.03;;;21.41;31.07
79085;BME280;68486;42.808;23.422;2023-03-23T14:28:41;93785.19;;;19.71;32.34
79085;BME280;68486;42.808;23.422;2023-03-23T14:31:34;94027.72;;;21.56;31.82
79085;BME280;68486;42.808;23.422;2023-03-23T14:34:12;93769.03;;;20.51;30.57
79085;BME280;68486;42.808;23.422;2023-03-23T14:40:12;94100.75;;;23.83;27.10
79085;BME280;68486;42.808;23.422;2023-03-23T14:46:08;94083.84;;;23.38;25.90
79085;BME280;68486;42.808;23.422;2023-03-23T14:48:36;94091.50;;;22.75;25.57
79085;BME280;68486;42.808;23.422;2023-03-23T14:51:04;94021.19;;;23.70;26.24
79085;BME280;68486;42.808;23.422;2023-03-23T14:53:36;94060.97;;;24.50;23.69
79085;BME280;68486;42.808;23.422;2023-03-23T14:56:09;94085.16;;;24.68;24.17
79085;BME280;68486;42.808;23.422;2023-03-23T14:58:37;94084.53;;;24.47;24.98
79085;BME280;68486;42.808;23.422;2023-03-23T15:03:34;94075.06;;;23.87;26.41
79085;BME280;68486;42.808;23.422;2023-03-23T15:06:03;94044.25;;;22.86;26.25
79085;BME280;68486;42.808;23.422;2023-03-23T15:08:32;94077.34;;;23.64;26.15
79085;BME280;68486;42.808;23.422;2023-03-23T15:13:26;94041.72;;;24.13;25.97
79085;BME280;68486;42.808;23.422;2023-03-23T15:16:22;94071.69;;;25.50;23.63
79085;BME280;68486;42.808;23.422;2023-03-23T15:19:06;94079.06;;;24.63;24.35
79085;BME280;68486;42.808;23.422;2023-03-23T15:24:39;94078.38;;;25.29;24.16
79085;BME280;68486;42.808;23.422;2023-03-23T15:27:29;94081.66;;;24.39;25.04
79085;BME280;68486;42.808;23.422;2023-03-23T15:29:58;94088.81;;;24.48;25.10
79085;BME280;68486;42.808;23.422;2023-03-23T15:32:39;94095.44;;;25.14;25.38
79085;BME280;68486;42.808;23.422;2023-03-23T15:35:17;94062.31;;;24.47;24.63
79085;BME280;68486;42.808;23.422;2023-03-23T15:37:46;94072.88;;;24.91;24.22